Time;durP1;ratioP1;P1;durP2;ratioP2;P2;SDS_P1;SDS_P2;PMS_P1;PMS_P2;Temp;Humidity;BMP_temperature;BMP_pressure;BME280_temperature;BME280_humidity;BME280_pressure;Samples;Min_cycle;Max_cycle;Signal;HPM_P1;HPM_P2
2022/12/22 03:25:50;;;;;;;2.35;0.85;;;;;;;;;;5113618;28;20405;-57
2022/12/22 03:28:16;;;;;;;1.90;0.80;;;;;;;;;;5114123;28;20028;-58
2022/12/22 03:30:42;;;;;;;0.55;0.22;;;;;;;;;;5113566;28;20482;-54
2022/12/22 03:33:08;;;;;;;1.50;0.77;;;;;;;;;;5114075;28;20081;-56
2022/12/22 03:35:34;;;;;;;1.02;0.60;;;;;;;;;;5113842;28;20030;-58
2022/12/22 03:38:02;;;;;;;0.85;0.40;;;;;;;;;;5115989;28;20024;-58
2022/12/22 03:40:28;;;;;;;1.13;0.60;;;;;;;;;;5117308;28;20034;-58
2022/12/22 03:48:24;;;;;;;1.05;0.60;;;;;;;;;;5117020;28;20434;-58
2022/12/22 03:50:50;;;;;;;1.40;0.60;;;;;;;;;;5117144;28;20028;-58
2022/12/22 03:53:16;;;;;;;0.85;0.50;;;;;;;;;;5117021;28;20051;-58
2022/12/22 03:55:42;;;;;;;1.10;0.50;;;;;;;;;;5117584;28;20365;-58
2022/12/22 03:58:07;;;;;;;0.85;0.40;;;;;;;;;;5116730;28;20015;-58
2022/12/22 04:00:33;;;;;;;0.98;0.68;;;;;;;;;;5116842;28;20104;-58
2022/12/22 04:02:59;;;;;;;1.38;0.70;;;;;;;;;;5099140;28;20044;-58
2022/12/22 04:05:25;;;;;;;1.65;0.30;;;;;;;;;;5116874;28;20032;-57
2022/12/22 04:07:51;;;;;;;0.98;0.35;;;;;;;;;;5116601;28;20478;-58
2022/12/22 04:13:02;;;;;;;0.63;0.40;;;;;;;;;;5116892;28;20039;-58
2022/12/22 04:15:29;;;;;;;1.27;0.57;;;;;;;;;;5116866;28;20042;-58
2022/12/22 04:17:56;;;;;;;0.70;0.32;;;;;;;;;;5116201;28;20026;-58
2022/12/22 04:20:22;;;;;;;0.80;0.40;;;;;;;;;;5116490;28;20385;-57
2022/12/22 04:22:49;;;;;;;1.10;0.57;;;;;;;;;;5116136;28;20024;-58
2022/12/22 04:25:15;;;;;;;0.60;0.38;;;;;;;;;;5116609;28;20039;-57
2022/12/22 04:27:41;;;;;;;3.55;0.30;;;;;;;;;;5116391;28;20049;-58
2022/12/22 04:30:07;;;;;;;0.70;0.30;;;;;;;;;;5116288;28;20031;-58
2022/12/22 04:32:33;;;;;;;0.60;0.35;;;;;;;;;;5116336;28;20096;-58
2022/12/22 04:34:59;;;;;;;0.73;0.35;;;;;;;;;;5116642;28;20031;-58
2022/12/22 04:37:25;;;;;;;0.60;0.30;;;;;;;;;;5116495;28;20020;-58
2022/12/22 04:39:51;;;;;;;1.00;0.45;;;;;;;;;;5116978;28;20032;-58
2022/12/22 04:42:17;;;;;;;0.77;0.40;;;;;;;;;;5116143;28;20152;-57
2022/12/22 04:44:43;;;;;;;1.17;0.47;;;;;;;;;;5116743;28;20030;-58
2022/12/22 04:47:09;;;;;;;2.38;0.38;;;;;;;;;;5116513;28;20112;-58
2022/12/22 04:49:35;;;;;;;0.70;0.20;;;;;;;;;;5115009;28;20411;-56
2022/12/22 04:52:01;;;;;;;0.75;0.40;;;;;;;;;;5115901;28;20042;-57
2022/12/22 04:54:27;;;;;;;1.02;0.40;;;;;;;;;;5116477;28;20024;-58
2022/12/22 04:56:53;;;;;;;0.75;0.38;;;;;;;;;;5115898;28;20516;-58
2022/12/22 04:59:19;;;;;;;1.75;0.50;;;;;;;;;;5116286;28;20399;-58
2022/12/22 05:01:45;;;;;;;0.57;0.30;;;;;;;;;;5115986;28;20124;-58
2022/12/22 05:04:11;;;;;;;4.80;0.55;;;;;;;;;;5116214;28;20028;-57
2022/12/22 05:06:37;;;;;;;0.95;0.45;;;;;;;;;;5115586;28;20027;-59
2022/12/22 05:09:03;;;;;;;1.30;0.60;;;;;;;;;;5116193;28;20030;-58
2022/12/22 05:11:29;;;;;;;1.30;0.65;;;;;;;;;;5115906;28;20460;-57
2022/12/22 05:13:55;;;;;;;1.95;0.63;;;;;;;;;;5116177;28;20059;-58
2022/12/22 05:16:21;;;;;;;2.00;0.75;;;;;;;;;;5115311;28;20118;-56
2022/12/22 05:18:47;;;;;;;0.65;0.30;;;;;;;;;;5115290;28;20032;-58
2022/12/22 05:21:14;;;;;;;1.92;0.50;;;;;;;;;;5115518;28;20076;-58
2022/12/22 05:23:40;;;;;;;0.35;0.22;;;;;;;;;;5115640;28;20035;-57
2022/12/22 05:26:07;;;;;;;0.47;0.20;;;;;;;;;;5115615;28;20036;-57
2022/12/22 05:28:33;;;;;;;1.77;0.75;;;;;;;;;;5115309;28;20031;-58
2022/12/22 05:31:06;;;;;;;3.53;0.68;;;;;;;;;;5115270;28;20024;-58
2022/12/22 05:33:32;;;;;;;1.85;0.52;;;;;;;;;;5115278;28;20024;-57
2022/12/22 05:35:58;;;;;;;0.68;0.40;;;;;;;;;;5116115;28;20031;-58
2022/12/22 05:38:24;;;;;;;3.67;0.40;;;;;;;;;;5115232;28;20031;-58
2022/12/22 05:40:50;;;;;;;1.92;0.47;;;;;;;;;;5115400;28;20023;-57
2022/12/22 05:43:16;;;;;;;3.42;0.90;;;;;;;;;;5115059;28;20016;-56
2022/12/22 05:45:44;;;;;;;0.70;0.40;;;;;;;;;;5115233;28;20372;-57
2022/12/22 05:48:10;;;;;;;3.22;0.50;;;;;;;;;;5115032;28;20048;-58
2022/12/22 05:50:36;;;;;;;1.27;1.02;;;;;;;;;;5114921;28;20078;-57
2022/12/22 05:53:02;;;;;;;2.30;0.70;;;;;;;;;;5114843;28;20028;-58
2022/12/22 05:55:28;;;;;;;3.10;0.95;;;;;;;;;;5115426;28;20115;-58
2022/12/22 05:57:54;;;;;;;2.35;0.85;;;;;;;;;;5115057;28;20055;-58
2022/12/22 06:00:20;;;;;;;1.95;0.40;;;;;;;;;;5114539;28;20185;-58
2022/12/22 06:02:46;;;;;;;3.85;0.30;;;;;;;;;;5114878;28;20043;-57
2022/12/22 06:05:13;;;;;;;3.03;0.95;;;;;;;;;;5114938;28;20040;-58
2022/12/22 06:07:39;;;;;;;3.30;1.67;;;;;;;;;;5114596;28;20059;-58
2022/12/22 06:10:06;;;;;;;2.75;0.93;;;;;;;;;;5115026;28;20027;-58
2022/12/22 06:12:32;;;;;;;1.15;0.63;;;;;;;;;;5114509;28;20110;-58
2022/12/22 06:14:58;;;;;;;3.90;1.02;;;;;;;;;;5114470;28;20070;-58
2022/12/22 06:17:24;;;;;;;1.40;0.98;;;;;;;;;;5114470;28;20028;-57
2022/12/22 06:19:50;;;;;;;0.95;0.38;;;;;;;;;;5115249;28;20027;-57
2022/12/22 06:22:16;;;;;;;1.35;0.95;;;;;;;;;;5114389;28;20058;-58
2022/12/22 06:24:41;;;;;;;1.33;0.50;;;;;;;;;;5114411;28;20023;-58
2022/12/22 06:27:09;;;;;;;4.85;1.20;;;;;;;;;;5114002;28;20039;-56
2022/12/22 06:29:35;;;;;;;2.38;0.57;;;;;;;;;;5114799;28;20028;-57
2022/12/22 06:32:01;;;;;;;1.73;0.90;;;;;;;;;;5114276;28;20027;-58
2022/12/22 06:34:27;;;;;;;3.38;0.68;;;;;;;;;;5114520;28;20023;-59
2022/12/22 06:36:53;;;;;;;4.70;0.85;;;;;;;;;;5114205;28;20043;-58
2022/12/22 06:39:19;;;;;;;4.32;1.02;;;;;;;;;;5114086;28;20094;-57
2022/12/22 06:44:30;;;;;;;1.65;0.95;;;;;;;;;;5114274;28;20027;-58
2022/12/22 06:46:56;;;;;;;3.88;0.70;;;;;;;;;;5113774;28;20465;-58
2022/12/22 06:49:22;;;;;;;4.32;1.45;;;;;;;;;;5114149;28;20022;-58
2022/12/22 06:51:48;;;;;;;1.25;0.60;;;;;;;;;;5114906;28;20145;-58
2022/12/22 06:54:14;;;;;;;9.20;1.02;;;;;;;;;;5114266;28;20055;-58
2022/12/22 06:56:40;;;;;;;1.27;0.50;;;;;;;;;;5113683;28;20056;-56
2022/12/22 06:59:06;;;;;;;4.10;1.20;;;;;;;;;;5113996;28;20056;-56
2022/12/22 07:01:32;;;;;;;1.27;0.63;;;;;;;;;;5114177;28;20573;-57
2022/12/22 07:03:58;;;;;;;1.23;0.73;;;;;;;;;;5114039;28;20027;-56
2022/12/22 07:06:24;;;;;;;3.60;0.80;;;;;;;;;;5113519;28;20032;-55
2022/12/22 07:08:50;;;;;;;7.43;2.88;;;;;;;;;;5113962;28;20023;-57
2022/12/22 07:11:16;;;;;;;3.67;1.13;;;;;;;;;;5114018;28;20059;-55
2022/12/22 07:13:42;;;;;;;1.52;0.60;;;;;;;;;;5118487;28;20020;-57
2022/12/22 07:16:09;;;;;;;3.58;0.73;;;;;;;;;;5117972;28;20031;-56
2022/12/22 07:18:39;;;;;;;1.75;0.85;;;;;;;;;;5117888;28;20027;-55
2022/12/22 07:21:07;;;;;;;3.47;1.17;;;;;;;;;;5100423;28;20034;-57
2022/12/22 07:23:33;;;;;;;5.25;1.25;;;;;;;;;;5118095;28;20020;-54
2022/12/22 07:25:59;;;;;;;5.25;1.83;;;;;;;;;;5118187;28;20471;-54
2022/12/22 07:28:25;;;;;;;4.90;1.40;;;;;;;;;;5117596;28;20097;-56
2022/12/22 07:30:52;;;;;;;1.65;0.60;;;;;;;;;;5117365;28;20453;-56
2022/12/22 07:33:18;;;;;;;2.05;1.65;;;;;;;;;;5117323;28;20097;-56
2022/12/22 07:35:44;;;;;;;6.22;1.52;;;;;;;;;;5118018;28;20088;-55
2022/12/22 07:38:10;;;;;;;3.75;1.20;;;;;;;;;;5117499;28;20073;-54
2022/12/22 07:40:36;;;;;;;3.15;0.80;;;;;;;;;;5117237;28;20368;-55
2022/12/22 07:43:02;;;;;;;4.43;1.05;;;;;;;;;;5116996;28;20027;-55
2022/12/22 07:45:28;;;;;;;2.63;1.17;;;;;;;;;;5117648;28;20031;-54
2022/12/22 07:48:00;;;;;;;5.90;1.77;;;;;;;;;;5117529;28;20365;-55
2022/12/22 07:50:31;;;;;;;3.30;1.13;;;;;;;;;;5117071;28;20024;-55
2022/12/22 07:52:59;;;;;;;3.78;1.08;;;;;;;;;;5117817;28;20028;-55
2022/12/22 07:55:26;;;;;;;2.22;1.00;;;;;;;;;;5117189;28;20062;-57
2022/12/22 07:57:52;;;;;;;1.80;0.77;;;;;;;;;;5117556;28;20024;-57
2022/12/22 08:00:19;;;;;;;3.88;1.35;;;;;;;;;;5116819;28;20314;-57
2022/12/22 08:02:49;;;;;;;5.03;0.80;;;;;;;;;;5117906;28;20058;-55
2022/12/22 08:05:15;;;;;;;3.60;1.75;;;;;;;;;;5117005;28;20031;-57
2022/12/22 08:07:41;;;;;;;2.05;1.25;;;;;;;;;;5117213;28;20384;-56
2022/12/22 08:10:07;;;;;;;3.13;0.50;;;;;;;;;;5117075;28;20020;-52
2022/12/22 08:12:33;;;;;;;4.03;0.98;;;;;;;;;;5116761;28;20028;-55
2022/12/22 08:14:59;;;;;;;4.03;1.02;;;;;;;;;;5116858;28;20457;-56
2022/12/22 08:17:28;;;;;;;2.75;1.55;;;;;;;;;;5117182;28;20027;-57
2022/12/22 08:19:54;;;;;;;6.20;2.08;;;;;;;;;;5116618;28;20030;-52
2022/12/22 08:22:22;;;;;;;2.17;0.88;;;;;;;;;;5116483;28;20028;-56
2022/12/22 08:24:49;;;;;;;2.65;1.45;;;;;;;;;;5116708;28;20111;-57
2022/12/22 08:27:17;;;;;;;5.75;1.05;;;;;;;;;;5116808;28;20031;-56
2022/12/22 08:29:45;;;;;;;4.07;1.52;;;;;;;;;;5116554;28;20043;-57
2022/12/22 08:32:11;;;;;;;8.80;1.83;;;;;;;;;;5116577;28;20054;-56
2022/12/22 08:34:38;;;;;;;2.22;0.93;;;;;;;;;;5116392;28;20024;-56
2022/12/22 08:37:05;;;;;;;10.05;1.77;;;;;;;;;;5116382;28;20027;-56
2022/12/22 08:39:32;;;;;;;3.35;0.90;;;;;;;;;;5116614;28;20034;-58
2022/12/22 08:41:59;;;;;;;2.47;1.52;;;;;;;;;;5116271;28;20035;-56
2022/12/22 08:44:26;;;;;;;2.08;0.75;;;;;;;;;;5098173;28;20453;-56
2022/12/22 08:46:53;;;;;;;4.35;1.23;;;;;;;;;;5116330;28;20449;-57
2022/12/22 08:49:19;;;;;;;7.32;0.80;;;;;;;;;;5116392;28;20023;-57
2022/12/22 08:51:46;;;;;;;5.90;1.58;;;;;;;;;;5116247;28;20080;-55
2022/12/22 08:54:12;;;;;;;3.55;1.05;;;;;;;;;;5115925;28;20031;-57
2022/12/22 08:56:38;;;;;;;7.15;2.63;;;;;;;;;;5115956;28;20026;-57
2022/12/22 08:59:06;;;;;;;2.75;1.40;;;;;;;;;;5116228;28;20028;-57
2022/12/22 09:01:33;;;;;;;5.82;0.90;;;;;;;;;;5115933;28;20043;-58
2022/12/22 09:03:59;;;;;;;5.25;0.80;;;;;;;;;;5115762;28;20024;-57
2022/12/22 09:06:25;;;;;;;2.22;0.60;;;;;;;;;;5097245;28;20028;-57
2022/12/22 09:08:55;;;;;;;0.82;0.57;;;;;;;;;;5115822;28;20041;-57
2022/12/22 09:11:21;;;;;;;4.55;1.70;;;;;;;;;;5115502;28;20376;-56
2022/12/22 09:13:47;;;;;;;6.25;2.17;;;;;;;;;;5115698;28;20016;-58
2022/12/22 09:16:13;;;;;;;2.92;1.38;;;;;;;;;;5115801;28;20081;-57
2022/12/22 09:18:39;;;;;;;2.97;1.00;;;;;;;;;;5115445;28;20023;-57
2022/12/22 09:21:05;;;;;;;3.42;1.08;;;;;;;;;;5115531;28;20102;-57
2022/12/22 09:23:31;;;;;;;2.78;1.05;;;;;;;;;;5115723;28;20024;-58
2022/12/22 09:25:57;;;;;;;3.15;1.27;;;;;;;;;;5115957;28;20035;-56
2022/12/22 09:28:23;;;;;;;2.20;0.80;;;;;;;;;;5115513;28;20361;-57
2022/12/22 09:30:50;;;;;;;3.88;0.90;;;;;;;;;;5115394;28;20038;-58
2022/12/22 09:33:17;;;;;;;7.68;1.58;;;;;;;;;;5114972;28;20028;-57
2022/12/22 09:35:43;;;;;;;2.00;1.00;;;;;;;;;;5115003;28;20080;-57
2022/12/22 09:38:09;;;;;;;2.47;1.00;;;;;;;;;;5115514;28;20073;-57
2022/12/22 09:40:35;;;;;;;2.63;1.50;;;;;;;;;;5115475;28;20019;-57
2022/12/22 09:43:02;;;;;;;4.93;1.10;;;;;;;;;;5115028;28;20027;-58
2022/12/22 09:45:32;;;;;;;2.90;1.10;;;;;;;;;;5115033;28;20043;-57
2022/12/22 09:47:58;;;;;;;2.22;0.90;;;;;;;;;;5114950;28;20031;-57
2022/12/22 09:50:25;;;;;;;5.25;1.75;;;;;;;;;;5115453;28;20073;-57
2022/12/22 09:52:53;;;;;;;4.85;1.17;;;;;;;;;;5114871;28;20032;-57
2022/12/22 09:55:25;;;;;;;7.90;1.58;;;;;;;;;;5114912;28;20027;-57
2022/12/22 09:57:55;;;;;;;2.28;0.88;;;;;;;;;;5114715;28;20028;-59
2022/12/22 10:00:24;;;;;;;1.27;0.90;;;;;;;;;;5114641;28;20080;-56
2022/12/22 10:03:09;;;;;;;7.07;2.08;;;;;;;;;;5114519;28;20079;-58
2022/12/22 10:05:48;;;;;;;2.47;0.68;;;;;;;;;;5114977;28;20114;-57
2022/12/22 10:08:27;;;;;;;0.47;0.32;;;;;;;;;;5115201;28;20073;-57
2022/12/22 10:10:54;;;;;;;4.18;0.80;;;;;;;;;;5115339;28;20138;-56
2022/12/22 10:13:20;;;;;;;2.17;1.02;;;;;;;;;;5114526;28;20185;-57
2022/12/22 10:15:46;;;;;;;3.72;1.38;;;;;;;;;;5114634;28;20115;-56
2022/12/22 10:18:14;;;;;;;2.55;0.55;;;;;;;;;;5114962;28;20039;-57
2022/12/22 10:20:40;;;;;;;2.28;0.88;;;;;;;;;;5114218;28;20020;-56
2022/12/22 10:23:18;;;;;;;1.52;0.57;;;;;;;;;;5114481;28;20419;-56
2022/12/22 10:26:07;;;;;;;3.08;0.73;;;;;;;;;;5114734;28;20031;-59
2022/12/22 10:28:35;;;;;;;2.90;1.05;;;;;;;;;;5114803;28;20110;-57
2022/12/22 10:31:12;;;;;;;4.57;0.80;;;;;;;;;;5114254;28;20059;-55
2022/12/22 10:33:38;;;;;;;2.20;1.48;;;;;;;;;;5114203;28;20027;-57
2022/12/22 10:36:05;;;;;;;2.25;0.80;;;;;;;;;;5096350;28;20484;-56
2022/12/22 10:38:35;;;;;;;2.45;0.52;;;;;;;;;;5114230;28;20023;-56
2022/12/22 10:41:12;;;;;;;2.10;1.00;;;;;;;;;;5114409;28;20024;-57
2022/12/22 10:43:39;;;;;;;5.07;0.82;;;;;;;;;;5114298;28;20020;-57
2022/12/22 10:46:05;;;;;;;8.20;0.88;;;;;;;;;;5113846;28;20111;-57
2022/12/22 10:48:36;;;;;;;3.08;1.02;;;;;;;;;;5118021;28;20059;-57
2022/12/22 10:51:04;;;;;;;1.52;0.60;;;;;;;;;;5118531;28;20028;-57
2022/12/22 10:53:39;;;;;;;1.50;0.68;;;;;;;;;;5118259;28;20020;-57
2022/12/22 10:56:05;;;;;;;3.63;1.42;;;;;;;;;;5118929;28;20039;-57
2022/12/22 10:58:45;;;;;;;2.53;0.73;;;;;;;;;;5118451;28;20020;-58
2022/12/22 11:01:11;;;;;;;1.45;0.70;;;;;;;;;;5118550;28;20073;-57
2022/12/22 11:03:37;;;;;;;2.28;1.10;;;;;;;;;;5118149;28;20032;-57
2022/12/22 11:06:10;;;;;;;2.70;0.82;;;;;;;;;;5118012;28;20028;-58
2022/12/22 11:08:36;;;;;;;2.47;1.13;;;;;;;;;;5118119;28;20449;-57
2022/12/22 11:11:05;;;;;;;1.95;0.73;;;;;;;;;;5117731;28;20087;-57
2022/12/22 11:13:44;;;;;;;4.03;1.17;;;;;;;;;;5118472;28;20039;-57
2022/12/22 11:16:29;;;;;;;3.60;1.55;;;;;;;;;;5118566;28;20392;-57
2022/12/22 11:19:17;;;;;;;4.90;2.78;;;;;;;;;;5118159;28;20024;-57
2022/12/22 11:21:58;;;;;;;3.47;1.42;;;;;;;;;;5118107;28;20035;-54
2022/12/22 11:24:50;;;;;;;8.32;1.25;;;;;;;;;;5117741;28;20427;-58
2022/12/22 11:27:23;;;;;;;1.25;0.55;;;;;;;;;;5098773;28;20546;-58
2022/12/22 11:30:01;;;;;;;4.43;0.60;;;;;;;;;;5118344;28;20030;-57
2022/12/22 11:32:46;;;;;;;3.58;1.02;;;;;;;;;;5118187;28;20027;-58
2022/12/22 11:35:30;;;;;;;2.35;0.68;;;;;;;;;;5117728;28;20416;-56
2022/12/22 11:38:01;;;;;;;1.33;0.80;;;;;;;;;;5117398;28;20077;-57
2022/12/22 11:40:30;;;;;;;2.47;0.82;;;;;;;;;;5117798;28;20094;-55
2022/12/22 11:42:56;;;;;;;1.75;0.47;;;;;;;;;;5117373;28;20521;-58
2022/12/22 11:45:35;;;;;;;1.02;0.47;;;;;;;;;;5117575;28;20062;-57
2022/12/22 11:48:01;;;;;;;1.05;0.57;;;;;;;;;;5117331;28;20114;-57
2022/12/22 11:50:33;;;;;;;2.95;0.57;;;;;;;;;;5117313;28;20066;-57
2022/12/22 11:53:05;;;;;;;1.83;1.35;;;;;;;;;;5117204;28;20114;-56
2022/12/22 11:55:31;;;;;;;0.45;0.28;;;;;;;;;;5117938;28;20028;-56
2022/12/22 11:58:05;;;;;;;0.47;0.32;;;;;;;;;;5117245;28;20115;-57
2022/12/22 12:00:35;;;;;;;4.05;0.70;;;;;;;;;;5117024;28;20023;-58
2022/12/22 12:03:15;;;;;;;1.15;0.52;;;;;;;;;;5117316;28;20043;-57
2022/12/22 12:05:59;;;;;;;1.67;0.73;;;;;;;;;;5117169;28;20411;-56
2022/12/22 12:08:31;;;;;;;2.80;0.65;;;;;;;;;;5117333;28;20521;-56
2022/12/22 12:11:03;;;;;;;2.35;0.63;;;;;;;;;;5116990;28;20058;-57
2022/12/22 12:13:34;;;;;;;0.60;0.28;;;;;;;;;;5117769;28;20435;-57
2022/12/22 12:16:26;;;;;;;1.52;0.50;;;;;;;;;;5117254;28;20034;-57
2022/12/22 12:19:01;;;;;;;2.13;0.82;;;;;;;;;;5117067;28;20032;-57
2022/12/22 12:21:46;;;;;;;3.50;0.60;;;;;;;;;;5117003;28;20077;-56
2022/12/22 12:24:17;;;;;;;2.28;0.80;;;;;;;;;;5116631;28;20023;-56
2022/12/22 12:26:50;;;;;;;6.40;0.80;;;;;;;;;;5116594;28;20032;-57
2022/12/22 12:29:21;;;;;;;0.38;0.28;;;;;;;;;;5116618;28;20072;-57
2022/12/22 12:31:49;;;;;;;1.48;1.27;;;;;;;;;;5116513;28;20047;-57
2022/12/22 12:34:16;;;;;;;2.40;0.77;;;;;;;;;;5116343;28;20453;-57
2022/12/22 12:36:57;;;;;;;1.02;0.30;;;;;;;;;;5116227;28;20354;-57
2022/12/22 12:39:38;;;;;;;0.98;0.47;;;;;;;;;;5116336;28;20027;-57
2022/12/22 12:42:04;;;;;;;;;;;;;;;;;;5116662;28;20020;-57
2022/12/22 12:44:35;;;;;;;2.72;0.68;;;;;;;;;;5116789;28;19907;-58
2022/12/22 12:47:06;;;;;;;1.45;0.20;;;;;;;;;;5116718;28;20063;-57
2022/12/22 12:49:35;;;;;;;0.70;0.20;;;;;;;;;;5116746;28;20024;-57
2022/12/22 12:52:24;;;;;;;2.10;0.75;;;;;;;;;;5116099;28;20030;-57
2022/12/22 12:54:50;;;;;;;1.85;0.47;;;;;;;;;;5113372;28;20428;-58
2022/12/22 12:57:27;;;;;;;1.23;0.40;;;;;;;;;;5116690;28;20081;-55
2022/12/22 12:59:55;;;;;;;0.20;0.13;;;;;;;;;;5115982;28;20030;-54
2022/12/22 13:02:27;;;;;;;0.38;0.25;;;;;;;;;;5115567;28;20051;-57
2022/12/22 13:05:11;;;;;;;0.73;0.40;;;;;;;;;;5116461;28;20076;-57
2022/12/22 13:07:55;;;;;;;4.50;0.70;;;;;;;;;;5115680;28;20028;-57
2022/12/22 13:10:23;;;;;;;0.55;0.35;;;;;;;;;;5114729;28;20030;-55
2022/12/22 13:12:50;;;;;;;2.78;0.40;;;;;;;;;;5115385;28;20027;-58
2022/12/22 13:15:33;;;;;;;1.42;0.38;;;;;;;;;;5116158;28;20035;-56
2022/12/22 13:17:59;;;;;;;0.40;0.20;;;;;;;;;;5116023;28;20119;-57
2022/12/22 13:20:32;;;;;;;0.93;0.40;;;;;;;;;;5115131;28;20475;-57
2022/12/22 13:23:00;;;;;;;0.30;0.20;;;;;;;;;;5115969;28;20019;-57
2022/12/22 13:25:33;;;;;;;0.22;0.10;;;;;;;;;;5115493;28;20524;-57
2022/12/22 13:27:59;;;;;;;0.22;0.20;;;;;;;;;;5115431;28;20457;-57
2022/12/22 13:30:26;;;;;;;1.13;0.32;;;;;;;;;;5115593;28;20050;-56
2022/12/22 13:32:52;;;;;;;3.33;0.82;;;;;;;;;;5115809;28;20028;-57
2022/12/22 13:35:23;;;;;;;0.70;0.25;;;;;;;;;;5116094;28;20365;-57
2022/12/22 13:37:52;;;;;;;0.82;0.57;;;;;;;;;;5115334;28;20028;-57
2022/12/22 13:40:18;;;;;;;1.40;0.55;;;;;;;;;;5115422;28;20201;-57
2022/12/22 13:42:46;;;;;;;1.30;0.50;;;;;;;;;;5114970;28;20546;-58
2022/12/22 13:45:15;;;;;;;0.90;0.63;;;;;;;;;;5115428;28;20031;-57
2022/12/22 13:47:43;;;;;;;0.80;0.38;;;;;;;;;;5114964;28;20023;-56
2022/12/22 13:50:16;;;;;;;6.25;0.82;;;;;;;;;;5115057;28;20033;-56
2022/12/22 13:52:42;;;;;;;2.15;0.52;;;;;;;;;;5115403;28;20030;-57
2022/12/22 13:55:17;;;;;;;1.88;0.82;;;;;;;;;;5114914;28;20019;-57
2022/12/22 13:57:43;;;;;;;2.95;0.98;;;;;;;;;;5114532;28;20058;-56
2022/12/22 14:00:17;;;;;;;1.33;0.40;;;;;;;;;;5115187;28;20055;-57
2022/12/22 14:02:44;;;;;;;5.60;0.95;;;;;;;;;;5113611;28;20047;-57
2022/12/22 14:05:14;;;;;;;1.60;0.80;;;;;;;;;;5114733;28;20036;-54
2022/12/22 14:08:00;;;;;;;2.97;0.77;;;;;;;;;;5114770;28;20130;-56
2022/12/22 14:10:31;;;;;;;2.08;0.65;;;;;;;;;;5114475;28;20020;-57
2022/12/22 14:12:57;;;;;;;2.15;0.63;;;;;;;;;;5114572;28;20043;-57
2022/12/22 14:15:23;;;;;;;5.97;1.38;;;;;;;;;;5114449;28;20028;-57
2022/12/22 14:17:50;;;;;;;4.78;0.70;;;;;;;;;;5114851;28;20027;-56
2022/12/22 14:20:19;;;;;;;2.13;0.80;;;;;;;;;;5114620;28;20081;-57
2022/12/22 14:22:47;;;;;;;2.78;1.17;;;;;;;;;;5114835;28;20528;-57
2022/12/22 14:25:15;;;;;;;3.15;0.77;;;;;;;;;;5114422;28;20136;-58
2022/12/22 14:27:41;;;;;;;3.83;0.90;;;;;;;;;;5114067;28;20035;-56
2022/12/22 14:30:15;;;;;;;1.92;0.95;;;;;;;;;;5114355;28;20032;-58
2022/12/22 14:32:43;;;;;;;4.45;0.50;;;;;;;;;;5114244;28;20365;-58
2022/12/22 14:35:21;;;;;;;1.83;1.38;;;;;;;;;;5114699;28;20050;-57
2022/12/22 14:37:50;;;;;;;3.20;0.68;;;;;;;;;;5114494;28;20047;-57
2022/12/22 14:40:29;;;;;;;3.40;1.15;;;;;;;;;;5114794;28;20107;-57
2022/12/22 14:42:56;;;;;;;3.60;0.65;;;;;;;;;;5113944;28;20028;-56
2022/12/22 14:45:22;;;;;;;3.75;1.30;;;;;;;;;;5095435;28;20606;-57
2022/12/22 14:47:49;;;;;;;6.68;1.20;;;;;;;;;;5113898;28;20075;-55
2022/12/22 14:50:20;;;;;;;1.17;0.65;;;;;;;;;;5114175;28;20072;-57
2022/12/22 14:52:49;;;;;;;3.50;0.93;;;;;;;;;;5114114;28;20043;-57
2022/12/22 14:55:34;;;;;;;8.15;1.67;;;;;;;;;;5113829;28;20106;-58
2022/12/22 14:58:00;;;;;;;5.53;1.92;;;;;;;;;;5114025;28;20043;-57
2022/12/22 15:00:28;;;;;;;2.30;1.00;;;;;;;;;;5113728;28;20028;-54
2022/12/22 15:03:05;;;;;;;6.60;1.13;;;;;;;;;;5113780;28;20072;-54
2022/12/22 15:05:34;;;;;;;4.63;1.40;;;;;;;;;;5113582;28;20031;-55
2022/12/22 15:08:00;;;;;;;2.95;0.77;;;;;;;;;;5113696;28;20419;-57
2022/12/22 15:10:26;;;;;;;1.48;0.73;;;;;;;;;;5113674;28;20024;-56
2022/12/22 15:12:57;;;;;;;2.55;1.00;;;;;;;;;;5114117;28;20023;-56
2022/12/22 15:15:23;;;;;;;6.85;1.52;;;;;;;;;;5113818;28;20020;-57
2022/12/22 15:17:50;;;;;;;5.97;1.63;;;;;;;;;;5113418;28;20489;-58
2022/12/22 15:20:26;;;;;;;5.75;1.17;;;;;;;;;;5113501;28;20106;-56
2022/12/22 15:22:52;;;;;;;7.47;1.23;;;;;;;;;;5113736;28;20027;-57
2022/12/22 15:25:22;;;;;;;5.53;1.13;;;;;;;;;;5113417;28;20030;-55
2022/12/22 15:27:49;;;;;;;4.32;0.80;;;;;;;;;;5114063;28;20465;-57
2022/12/22 15:30:19;;;;;;;1.63;0.80;;;;;;;;;;5113281;28;20117;-57
2022/12/22 15:32:45;;;;;;;3.50;2.03;;;;;;;;;;5113905;28;20350;-57
2022/12/22 15:35:15;;;;;;;3.30;0.95;;;;;;;;;;5117295;28;20020;-57
2022/12/22 15:37:41;;;;;;;5.05;1.02;;;;;;;;;;5117692;28;20027;-56
2022/12/22 15:40:14;;;;;;;3.47;1.13;;;;;;;;;;5117109;28;20098;-57
2022/12/22 15:42:40;;;;;;;5.05;0.85;;;;;;;;;;5117398;28;20130;-56
2022/12/22 15:45:06;;;;;;;3.38;1.20;;;;;;;;;;5117158;28;20020;-57
2022/12/22 15:47:32;;;;;;;7.60;1.77;;;;;;;;;;5117163;28;20027;-56
2022/12/22 15:49:59;;;;;;;4.78;0.93;;;;;;;;;;5117013;28;20115;-57
2022/12/22 15:52:25;;;;;;;3.58;1.33;;;;;;;;;;5117303;28;20031;-56
2022/12/22 15:54:51;;;;;;;4.53;1.60;;;;;;;;;;5117256;28;20027;-57
2022/12/22 15:57:17;;;;;;;2.88;1.08;;;;;;;;;;5117210;28;20110;-57
2022/12/22 15:59:43;;;;;;;3.75;1.13;;;;;;;;;;5117140;28;20091;-57
2022/12/22 16:02:10;;;;;;;3.65;1.27;;;;;;;;;;5117165;28;20135;-57
2022/12/22 16:04:36;;;;;;;5.75;1.92;;;;;;;;;;5117066;28;20058;-56
2022/12/22 16:07:02;;;;;;;2.40;1.50;;;;;;;;;;5116917;28;20114;-57
2022/12/22 16:09:31;;;;;;;6.18;1.42;;;;;;;;;;5117483;28;20028;-56
2022/12/22 16:11:57;;;;;;;2.30;1.27;;;;;;;;;;5117369;28;20110;-57
2022/12/22 16:14:23;;;;;;;2.22;1.17;;;;;;;;;;5117491;28;20077;-56
2022/12/22 16:16:50;;;;;;;3.58;1.73;;;;;;;;;;5117049;28;20043;-57
2022/12/22 16:19:17;;;;;;;4.80;1.38;;;;;;;;;;5098561;28;20110;-57
2022/12/22 16:21:44;;;;;;;4.70;1.67;;;;;;;;;;5116714;28;20030;-57
2022/12/22 16:24:30;;;;;;;7.35;1.58;;;;;;;;;;5117095;28;20036;-58
2022/12/22 16:26:56;;;;;;;2.55;0.73;;;;;;;;;;5117317;28;20028;-57
2022/12/22 16:29:23;;;;;;;3.15;1.48;;;;;;;;;;5116590;28;20461;-56
2022/12/22 16:31:49;;;;;;;5.47;1.48;;;;;;;;;;5116459;28;20369;-58
2022/12/22 16:34:15;;;;;;;3.47;1.77;;;;;;;;;;5116982;28;20360;-58
2022/12/22 16:36:40;;;;;;;6.50;1.10;;;;;;;;;;5116363;28;20077;-57
2022/12/22 16:39:06;;;;;;;5.25;2.20;;;;;;;;;;5116277;28;20445;-55
2022/12/22 16:41:33;;;;;;;5.00;1.05;;;;;;;;;;5117008;28;20424;-57
2022/12/22 16:43:59;;;;;;;2.88;1.00;;;;;;;;;;5116229;28;20400;-58
2022/12/22 16:46:25;;;;;;;6.95;1.55;;;;;;;;;;5115351;28;20042;-58
2022/12/22 16:48:52;;;;;;;4.45;1.73;;;;;;;;;;5116740;28;20407;-56
2022/12/22 16:51:22;;;;;;;9.95;1.80;;;;;;;;;;5116251;28;20031;-57
2022/12/22 16:53:48;;;;;;;6.30;1.77;;;;;;;;;;5116104;28;20077;-56
2022/12/22 16:56:16;;;;;;;6.28;1.63;;;;;;;;;;5116073;28;20043;-57
2022/12/22 16:58:42;;;;;;;5.28;1.50;;;;;;;;;;5115995;28;20023;-57
2022/12/22 17:01:10;;;;;;;7.93;1.63;;;;;;;;;;5115753;28;20028;-56
2022/12/22 17:03:40;;;;;;;7.30;1.80;;;;;;;;;;5116592;28;20350;-57
2022/12/22 17:06:07;;;;;;;9.98;2.25;;;;;;;;;;5115994;28;20376;-56
2022/12/22 17:08:38;;;;;;;15.25;2.25;;;;;;;;;;5116092;28;20053;-55
2022/12/22 17:11:05;;;;;;;7.40;1.63;;;;;;;;;;5116299;28;20342;-55
2022/12/22 17:13:32;;;;;;;7.22;1.77;;;;;;;;;;5116024;28;20107;-58
2022/12/22 17:16:00;;;;;;;6.55;2.33;;;;;;;;;;5116009;28;20529;-58
2022/12/22 17:18:26;;;;;;;4.30;1.17;;;;;;;;;;5116504;28;20066;-58
2022/12/22 17:20:56;;;;;;;4.07;2.05;;;;;;;;;;5115641;28;20377;-58
2022/12/22 17:23:37;;;;;;;5.45;1.92;;;;;;;;;;5114803;28;20030;-57
2022/12/22 17:26:05;;;;;;;6.57;1.45;;;;;;;;;;5115229;28;20108;-58
2022/12/22 17:28:32;;;;;;;6.95;2.03;;;;;;;;;;5115458;28;20015;-58
2022/12/22 17:30:58;;;;;;;6.18;2.65;;;;;;;;;;5115367;28;20099;-55
2022/12/22 17:33:24;;;;;;;6.88;2.78;;;;;;;;;;5115634;28;20432;-58
2022/12/22 17:35:50;;;;;;;10.00;2.35;;;;;;;;;;5115777;28;20104;-58
2022/12/22 17:38:20;;;;;;;7.05;2.53;;;;;;;;;;5115810;28;20035;-57
2022/12/22 17:40:47;;;;;;;4.30;1.53;;;;;;;;;;5115152;28;20473;-57
2022/12/22 17:43:13;;;;;;;5.30;1.45;;;;;;;;;;5115696;28;20473;-55
2022/12/22 17:45:40;;;;;;;3.53;1.45;;;;;;;;;;5115455;28;20124;-56
2022/12/22 17:48:06;;;;;;;6.28;1.85;;;;;;;;;;5115241;28;20036;-56
2022/12/22 17:50:32;;;;;;;7.57;1.60;;;;;;;;;;5114977;28;20050;-56
2022/12/22 17:52:58;;;;;;;5.40;1.88;;;;;;;;;;5115018;28;20024;-54
2022/12/22 17:55:25;;;;;;;8.27;2.83;;;;;;;;;;5114550;28;20338;-57
2022/12/22 17:57:51;;;;;;;10.05;2.42;;;;;;;;;;5114829;28;20019;-56
2022/12/22 18:00:18;;;;;;;6.75;1.60;;;;;;;;;;5115445;28;20023;-57
2022/12/22 18:02:44;;;;;;;5.82;1.85;;;;;;;;;;5114926;28;20453;-53
2022/12/22 18:05:13;;;;;;;9.15;3.22;;;;;;;;;;5115099;28;20024;-55
2022/12/22 18:07:40;;;;;;;6.47;2.77;;;;;;;;;;5114643;28;20039;-57
2022/12/22 18:10:06;;;;;;;9.02;2.10;;;;;;;;;;5114675;28;20257;-57
2022/12/22 18:12:32;;;;;;;4.10;2.03;;;;;;;;;;5114571;28;20028;-58
2022/12/22 18:14:58;;;;;;;8.38;2.55;;;;;;;;;;5114353;28;20026;-56
2022/12/22 18:17:26;;;;;;;8.07;2.22;;;;;;;;;;5114220;28;20027;-56
2022/12/22 18:19:52;;;;;;;8.70;2.83;;;;;;;;;;5114233;28;20055;-55
2022/12/22 18:22:19;;;;;;;6.53;2.42;;;;;;;;;;5114306;28;20028;-52
2022/12/22 18:24:46;;;;;;;5.32;2.08;;;;;;;;;;5114693;28;20172;-55
2022/12/22 18:27:13;;;;;;;8.23;2.30;;;;;;;;;;5114315;28;20106;-57